createdAt,value
2023-03-02T00:00:49.481Z,96487.44
2023-03-02T00:03:20.338Z,96501.41
2023-03-02T00:05:48.646Z,96502.78
2023-03-02T00:08:17.542Z,96498.47
2023-03-02T00:10:45.804Z,96502.84
2023-03-02T00:13:14.444Z,96504.88
2023-03-02T00:15:47.055Z,96499.00
2023-03-02T00:18:19.724Z,96493.88
2023-03-02T00:20:50.074Z,96488.13
2023-03-02T00:23:17.826Z,96433.47
2023-03-02T00:25:45.654Z,96180.16
2023-03-02T00:28:16.904Z,96493.25
2023-03-02T00:30:47.374Z,96454.44
2023-03-02T00:33:15.395Z,96486.81
2023-03-02T00:35:45.453Z,96480.16
2023-03-02T00:38:13.591Z,96448.34
2023-03-02T00:40:50.365Z,96475.00
2023-03-02T00:43:18.281Z,96477.84
2023-03-02T00:45:48.250Z,96478.00
2023-03-02T00:48:25.451Z,96473.28
2023-03-02T00:50:53.347Z,96472.63
2023-03-02T00:53:21.445Z,96474.03
2023-03-02T00:55:54.807Z,96483.94
2023-03-02T00:58:22.993Z,96482.59
2023-03-02T01:00:53.715Z,96484.34
2023-03-02T01:03:21.882Z,96477.69
2023-03-02T01:05:50.134Z,96143.22
2023-03-02T01:08:17.905Z,96462.19
2023-03-02T01:10:52.176Z,96474.59
2023-03-02T01:13:23.776Z,96476.41
2023-03-02T01:16:01.335Z,96468.22
2023-03-02T01:18:29.176Z,96454.84
2023-03-02T01:21:03.622Z,96507.34
2023-03-02T01:23:31.425Z,96461.16
2023-03-02T01:25:59.286Z,96464.72
2023-03-02T01:28:29.888Z,96446.44
2023-03-02T01:31:01.216Z,96461.28
2023-03-02T01:33:29.209Z,96469.78
2023-03-02T01:35:57.003Z,96464.28
2023-03-02T01:38:24.955Z,96442.72
2023-03-02T01:40:52.822Z,96455.28
2023-03-02T01:43:26.008Z,96418.25
2023-03-02T01:45:55.831Z,96306.50
2023-03-02T01:48:33.638Z,96379.00
2023-03-02T01:51:02.050Z,96391.94
2023-03-02T01:53:35.090Z,96443.00
2023-03-02T01:56:05.703Z,96441.38
2023-03-02T01:58:39.757Z,96434.53
2023-03-02T02:01:15.748Z,96439.16
2023-03-02T02:03:48.162Z,96430.59
2023-03-02T02:06:19.526Z,96434.38
2023-03-02T02:09:01.256Z,96432.00
2023-03-02T02:11:32.448Z,96437.50
2023-03-02T02:14:01.778Z,96323.88
2023-03-02T02:16:31.382Z,96424.53
2023-03-02T02:19:01.620Z,96419.09
2023-03-02T02:21:33.002Z,96418.66
2023-03-02T02:24:08.683Z,96423.16
2023-03-02T02:26:45.985Z,96415.50
2023-03-02T02:29:19.505Z,96403.53
2023-03-02T02:31:51.877Z,96375.19
2023-03-02T02:34:22.962Z,96343.22
2023-03-02T02:36:53.110Z,96407.63
2023-03-02T02:39:25.017Z,96407.63
2023-03-02T02:42:04.492Z,96408.56
2023-03-02T02:44:32.477Z,96412.59
2023-03-02T02:47:00.392Z,96390.38
2023-03-02T02:49:35.677Z,96405.22
2023-03-02T02:52:19.020Z,96398.19
2023-03-02T02:54:49.613Z,96360.44
2023-03-02T02:57:19.788Z,96401.63
2023-03-02T02:59:49.617Z,96232.06
2023-03-02T03:02:20.887Z,96404.03
2023-03-02T03:04:48.727Z,96377.22
2023-03-02T03:07:19.978Z,96405.25
2023-03-02T03:09:50.593Z,96315.19
2023-03-02T03:12:29.175Z,96407.16
2023-03-02T03:15:00.552Z,96406.56
2023-03-02T03:17:30.488Z,96404.31
2023-03-02T03:20:06.168Z,96389.16
2023-03-02T03:22:38.446Z,96399.44
2023-03-02T03:25:10.007Z,96400.00
2023-03-02T03:27:39.889Z,96391.75
2023-03-02T03:30:17.437Z,96394.47
2023-03-02T03:32:45.386Z,96348.09
2023-03-02T03:35:19.441Z,96345.72
2023-03-02T03:37:48.544Z,96382.88
2023-03-02T03:40:16.566Z,96327.78
2023-03-02T03:42:46.808Z,96381.38
2023-03-02T03:45:17.580Z,96380.50
2023-03-02T03:47:47.931Z,96370.72
2023-03-02T03:50:15.743Z,96393.47
2023-03-02T03:52:46.335Z,96400.31
2023-03-02T03:55:22.839Z,96400.53
2023-03-02T03:57:56.410Z,96407.34
2023-03-02T04:00:27.801Z,96407.31
2023-03-02T04:02:55.736Z,96369.13
2023-03-02T04:05:27.388Z,96404.59
2023-03-02T04:08:02.217Z,96407.56
2023-03-02T04:10:30.774Z,96415.53
2023-03-02T04:13:08.008Z,96417.72
2023-03-02T04:15:36.488Z,96414.84
2023-03-02T04:18:06.372Z,96411.69
2023-03-02T04:20:36.583Z,96416.63
2023-03-02T04:23:04.459Z,96363.69
2023-03-02T04:25:36.334Z,96410.28
2023-03-02T04:28:06.632Z,96419.59
2023-03-02T04:30:34.739Z,96416.41
2023-03-02T04:33:06.530Z,96420.59
2023-03-02T04:35:34.318Z,96416.94
2023-03-02T04:38:05.087Z,96419.81
2023-03-02T04:40:35.129Z,96412.81
2023-03-02T04:43:03.718Z,96411.66
2023-03-02T04:45:35.331Z,96405.78
2023-03-02T04:48:06.764Z,96395.56
2023-03-02T04:50:34.999Z,96407.38
2023-03-02T04:53:04.194Z,96404.94
2023-03-02T04:55:36.898Z,96399.03
2023-03-02T04:58:04.651Z,96396.38
2023-03-02T05:00:41.217Z,96398.59
2023-03-02T05:03:12.625Z,96398.97
2023-03-02T05:05:40.426Z,96399.78
2023-03-02T05:08:20.026Z,96399.28
2023-03-02T05:10:47.817Z,96375.31
2023-03-02T05:13:15.655Z,96404.66
2023-03-02T05:15:50.838Z,96401.31
2023-03-02T05:18:19.224Z,96335.72
2023-03-02T05:20:47.905Z,96391.66
2023-03-02T05:23:25.171Z,96399.44
2023-03-02T05:25:54.930Z,96398.09
2023-03-02T05:28:26.307Z,96391.34
2023-03-02T05:31:00.652Z,96391.50
2023-03-02T05:33:28.934Z,96384.13
2023-03-02T05:35:57.079Z,96339.94
2023-03-02T05:38:25.202Z,96375.88
2023-03-02T05:41:09.840Z,96380.53
2023-03-02T05:43:37.653Z,96374.59
2023-03-02T05:46:14.801Z,96324.25
2023-03-02T05:48:45.410Z,96380.91
2023-03-02T05:51:13.516Z,96320.22
2023-03-02T05:53:43.781Z,96328.25
2023-03-02T05:56:15.455Z,96381.72
2023-03-02T05:58:43.444Z,96365.81
2023-03-02T06:01:16.327Z,96376.72
2023-03-02T06:03:44.694Z,96316.94
2023-03-02T06:06:19.722Z,96384.28
2023-03-02T06:08:47.805Z,96394.09
2023-03-02T06:11:18.336Z,96396.00
2023-03-02T06:13:52.855Z,96393.81
2023-03-02T06:16:22.915Z,96396.31
2023-03-02T06:18:52.993Z,96392.28
2023-03-02T06:21:21.118Z,96412.03
2023-03-02T06:23:49.057Z,96413.22
2023-03-02T06:26:19.797Z,96409.41
2023-03-02T06:28:52.691Z,96413.94
2023-03-02T06:31:23.393Z,96419.72
2023-03-02T06:33:51.543Z,96421.19
2023-03-02T06:36:19.779Z,96394.03
2023-03-02T06:38:48.119Z,96413.19
2023-03-02T06:41:19.756Z,96423.50
2023-03-02T06:43:48.483Z,96424.66
2023-03-02T06:46:16.861Z,96430.34
2023-03-02T06:48:59.179Z,96423.66
2023-03-02T06:51:27.273Z,96429.03
2023-03-02T06:53:57.416Z,96422.91
2023-03-02T06:56:28.732Z,96420.06
2023-03-02T06:58:58.234Z,96433.81
2023-03-02T07:01:29.759Z,96422.78
2023-03-02T07:04:00.474Z,96439.94
2023-03-02T07:06:34.483Z,96420.59
2023-03-02T07:09:05.977Z,96444.13
2023-03-02T07:11:34.783Z,96416.50
2023-03-02T07:14:05.242Z,96411.72
2023-03-02T07:16:34.720Z,96442.41
2023-03-02T07:19:05.337Z,96422.81
2023-03-02T07:21:34.588Z,96448.41
2023-03-02T07:24:05.741Z,96450.00
2023-03-02T07:26:36.769Z,96421.53
2023-03-02T07:29:05.431Z,96198.16
2023-03-02T07:31:35.395Z,96452.41
2023-03-02T07:34:05.743Z,96458.28
2023-03-02T07:36:36.820Z,96454.19
2023-03-02T07:39:06.653Z,96458.09
2023-03-02T07:41:37.977Z,96455.56
2023-03-02T07:44:10.741Z,96470.03
2023-03-02T07:46:42.521Z,96463.47
2023-03-02T07:49:14.733Z,96460.22
2023-03-02T07:51:45.819Z,96457.59
2023-03-02T07:54:15.200Z,96474.78
2023-03-02T07:56:43.516Z,96444.16
2023-03-02T07:59:12.683Z,96470.09
2023-03-02T08:01:41.076Z,96449.78
2023-03-02T08:04:10.400Z,96479.06
2023-03-02T08:06:42.446Z,96470.56
2023-03-02T08:09:15.755Z,96465.63
2023-03-02T08:11:44.923Z,96476.66
2023-03-02T08:14:13.111Z,96479.69
2023-03-02T08:16:43.313Z,96481.72
2023-03-02T08:19:14.202Z,96478.41
2023-03-02T08:21:43.467Z,96481.50
2023-03-02T08:24:11.920Z,96486.16
2023-03-02T08:26:41.987Z,96480.78
2023-03-02T08:29:12.896Z,96482.59
2023-03-02T08:31:42.429Z,96480.19
2023-03-02T08:34:11.376Z,96488.00
2023-03-02T08:36:41.043Z,96432.41
2023-03-02T08:39:11.654Z,96483.75
2023-03-02T08:41:40.196Z,96475.78
2023-03-02T08:44:09.542Z,96468.41
2023-03-02T08:46:39.994Z,96480.63
2023-03-02T08:49:08.027Z,96477.09
2023-03-02T08:51:37.245Z,96478.53
2023-03-02T08:54:07.529Z,96474.75
2023-03-02T08:56:44.795Z,96461.97
2023-03-02T08:59:14.218Z,96448.44
2023-03-02T09:01:43.504Z,96448.81
2023-03-02T09:04:12.342Z,96442.84
2023-03-02T09:06:45.248Z,96406.13
2023-03-02T09:09:15.922Z,96481.84
2023-03-02T09:11:50.034Z,96454.91
2023-03-02T09:14:18.232Z,96454.25
2023-03-02T09:16:50.247Z,96452.78
2023-03-02T09:19:19.830Z,96446.81
2023-03-02T09:21:48.108Z,96452.81
2023-03-02T09:24:16.406Z,96448.38
2023-03-02T09:26:45.867Z,96433.22
2023-03-02T09:29:13.913Z,96423.84
2023-03-02T09:31:41.884Z,96445.16
2023-03-02T09:34:09.939Z,96446.16
2023-03-02T09:36:39.748Z,96447.78
2023-03-02T09:39:12.582Z,96447.88
2023-03-02T09:42:06.722Z,96451.84
2023-03-02T09:44:57.720Z,96452.75
2023-03-02T09:47:35.820Z,96442.53
2023-03-02T09:50:13.755Z,96454.91
2023-03-02T09:52:47.572Z,96445.75
2023-03-02T09:55:19.516Z,96438.19
2023-03-02T09:57:55.946Z,96447.94
2023-03-02T10:00:32.974Z,96463.66
2023-03-02T10:03:14.806Z,96460.13
2023-03-02T10:05:45.794Z,96412.69
2023-03-02T10:08:20.848Z,96459.75
2023-03-02T10:11:06.262Z,96427.19
2023-03-02T10:13:47.604Z,96445.03
2023-03-02T10:16:25.145Z,96462.94
2023-03-02T10:18:59.762Z,96463.63
2023-03-02T10:21:32.994Z,96458.91
2023-03-02T10:24:08.997Z,96463.03
2023-03-02T10:26:49.874Z,96464.25
2023-03-02T10:29:36.744Z,96369.34
2023-03-02T10:32:17.323Z,96461.38
2023-03-02T10:34:45.389Z,96466.38
2023-03-02T10:37:15.513Z,96465.31
2023-03-02T10:39:50.166Z,96449.50
2023-03-02T10:42:23.299Z,96467.63
2023-03-02T10:44:57.722Z,96429.63
2023-03-02T10:47:28.668Z,96465.41
2023-03-02T10:49:57.711Z,96390.78
2023-03-02T10:52:29.610Z,96370.03
2023-03-02T10:55:06.475Z,96454.03
2023-03-02T10:57:38.000Z,96465.56
2023-03-02T11:00:16.666Z,96476.84
2023-03-02T11:02:56.096Z,96459.78
2023-03-02T11:05:32.685Z,96455.03
2023-03-02T11:08:02.595Z,96438.34
2023-03-02T11:10:32.500Z,96450.28
2023-03-02T11:13:02.026Z,96410.56
2023-03-02T11:15:37.534Z,96427.13
2023-03-02T11:18:19.037Z,96447.78
2023-03-02T11:20:59.179Z,96440.09
2023-03-02T11:23:34.012Z,96429.31
2023-03-02T11:26:06.790Z,96431.50
2023-03-02T11:28:41.168Z,96319.13
2023-03-02T11:31:18.847Z,96435.28
2023-03-02T11:34:07.806Z,96441.78
2023-03-02T11:36:46.897Z,96441.06
2023-03-02T11:39:19.717Z,96436.13
2023-03-02T11:41:50.639Z,96434.78
2023-03-02T11:44:24.734Z,96424.13
2023-03-02T11:47:03.020Z,96432.59
2023-03-02T11:49:39.748Z,96427.94
2023-03-02T11:52:08.282Z,96382.38
2023-03-02T11:54:43.030Z,96430.19
2023-03-02T11:57:20.357Z,96424.56
2023-03-02T11:59:48.560Z,96420.38
2023-03-02T12:02:19.070Z,96421.13
2023-03-02T12:04:51.247Z,96427.19
2023-03-02T12:07:26.943Z,96413.69
2023-03-02T12:10:00.108Z,96417.94
2023-03-02T12:12:42.162Z,96418.19
2023-03-02T12:15:28.762Z,96416.53
2023-03-02T12:17:58.115Z,96408.94
2023-03-02T12:20:28.693Z,96406.50
2023-03-02T12:23:10.776Z,96410.13
2023-03-02T12:25:49.596Z,96410.63
2023-03-02T12:28:31.526Z,96403.81
2023-03-02T12:31:15.183Z,96414.78
2023-03-02T12:33:47.313Z,96404.13
2023-03-02T12:36:21.161Z,96397.44
2023-03-02T12:38:58.234Z,96317.59
2023-03-02T12:41:41.523Z,96388.00
2023-03-02T12:44:22.855Z,96388.75
2023-03-02T12:46:54.133Z,96381.03
2023-03-02T12:49:35.426Z,96266.47
2023-03-02T12:52:04.772Z,96382.47
2023-03-02T12:54:34.393Z,96383.22
2023-03-02T12:57:08.932Z,96375.06
2023-03-02T12:59:37.610Z,96367.06
2023-03-02T13:02:08.484Z,96378.44
2023-03-02T13:04:37.952Z,96377.47
2023-03-02T13:07:16.533Z,96335.31
2023-03-02T13:09:55.617Z,96378.78
2023-03-02T13:12:24.635Z,96376.16
2023-03-02T13:14:57.567Z,96387.59
2023-03-02T13:17:29.639Z,96385.31
2023-03-02T13:19:59.936Z,96378.13
2023-03-02T13:22:28.442Z,96403.72
2023-03-02T13:25:02.204Z,96379.75
2023-03-02T13:27:34.051Z,96385.19
2023-03-02T13:30:11.534Z,96343.25
2023-03-02T13:32:45.299Z,96375.69
2023-03-02T13:35:24.437Z,96373.53
2023-03-02T13:37:59.460Z,96373.41
2023-03-02T13:40:44.145Z,96362.31
2023-03-02T13:43:38.814Z,96373.59
2023-03-02T13:46:08.800Z,96365.44
2023-03-02T13:48:40.419Z,96353.84
2023-03-02T13:51:20.748Z,96291.81
2023-03-02T13:53:54.775Z,96355.91
2023-03-02T13:56:25.941Z,96353.94
2023-03-02T13:58:54.761Z,96394.06
2023-03-02T14:01:23.872Z,96345.72
2023-03-02T14:03:57.440Z,96355.41
2023-03-02T14:06:26.809Z,96355.66
2023-03-02T14:08:56.423Z,96352.47
2023-03-02T14:11:24.396Z,96353.69
2023-03-02T14:13:54.837Z,96357.44
2023-03-02T14:16:24.198Z,96347.41
2023-03-02T14:18:53.749Z,96355.88
2023-03-02T14:21:23.740Z,96350.72
2023-03-02T14:23:54.376Z,96347.13
2023-03-02T14:26:35.943Z,96308.16
2023-03-02T14:29:17.050Z,96330.50
2023-03-02T14:31:45.959Z,96346.63
2023-03-02T14:34:20.562Z,96342.34
2023-03-02T14:36:50.952Z,96340.75
2023-03-02T14:39:23.267Z,96338.78
2023-03-02T14:41:54.869Z,96346.34
2023-03-02T14:44:23.283Z,96340.78
2023-03-02T14:46:51.376Z,96336.69
2023-03-02T14:49:23.655Z,96343.59
2023-03-02T14:51:57.313Z,96344.00
2023-03-02T14:54:26.680Z,96334.09
2023-03-02T14:56:57.702Z,96352.59
2023-03-02T14:59:25.539Z,96336.81
2023-03-02T15:01:53.514Z,96359.91
2023-03-02T15:04:22.213Z,96318.63
2023-03-02T15:06:59.202Z,96346.22
2023-03-02T15:09:28.499Z,96339.25
2023-03-02T15:12:01.041Z,96133.25
2023-03-02T15:14:28.897Z,96339.16
2023-03-02T15:17:00.580Z,96337.50
2023-03-02T15:19:28.631Z,96341.38
2023-03-02T15:21:59.264Z,96332.66
2023-03-02T15:24:30.768Z,96347.22
2023-03-02T15:27:00.738Z,96333.28
2023-03-02T15:29:30.482Z,96337.75
2023-03-02T15:31:58.631Z,96326.13
2023-03-02T15:34:26.518Z,96349.13
2023-03-02T15:36:54.880Z,96345.50
2023-03-02T15:39:24.271Z,96349.59
2023-03-02T15:41:55.247Z,96346.59
2023-03-02T15:44:29.690Z,96350.41
2023-03-02T15:47:02.343Z,96349.97
2023-03-02T15:49:33.246Z,96355.59
2023-03-02T15:52:01.919Z,96350.38
2023-03-02T15:54:31.484Z,96349.44
2023-03-02T15:57:00.680Z,96343.06
2023-03-02T15:59:31.954Z,96361.59
2023-03-02T16:02:02.225Z,96318.44
2023-03-02T16:04:31.573Z,96348.78
2023-03-02T16:06:59.598Z,96351.28
2023-03-02T16:09:28.914Z,96282.69
2023-03-02T16:11:57.122Z,96355.16
2023-03-02T16:14:31.524Z,96362.66
2023-03-02T16:16:59.387Z,96359.97
2023-03-02T16:19:27.293Z,96302.63
2023-03-02T16:22:11.556Z,96369.19
2023-03-02T16:24:40.936Z,96376.91
2023-03-02T16:27:09.758Z,96370.47
2023-03-02T16:29:41.656Z,96331.63
2023-03-02T16:32:18.261Z,96264.38
2023-03-02T16:34:46.916Z,96369.75
2023-03-02T16:37:21.966Z,96378.22
2023-03-02T16:39:49.888Z,96381.94
2023-03-02T16:42:18.525Z,96382.19
2023-03-02T16:44:48.783Z,96390.66
2023-03-02T16:47:19.623Z,96390.91
2023-03-02T16:49:47.480Z,96383.25
2023-03-02T16:52:16.982Z,96368.91
2023-03-02T16:54:45.471Z,96384.19
2023-03-02T16:57:13.377Z,96382.03
2023-03-02T16:59:41.387Z,96393.78
2023-03-02T17:02:13.722Z,96354.63
2023-03-02T17:04:41.515Z,96385.06
2023-03-02T17:07:11.576Z,96388.47
2023-03-02T17:09:41.425Z,96397.00
2023-03-02T17:12:09.863Z,96383.09
2023-03-02T17:14:40.622Z,96411.31
2023-03-02T17:17:13.311Z,96330.84
2023-03-02T17:19:44.055Z,96415.28
2023-03-02T17:22:22.211Z,96377.41
2023-03-02T17:24:50.443Z,96420.06
2023-03-02T17:27:25.319Z,96417.41
2023-03-02T17:29:54.241Z,96409.44
2023-03-02T17:32:31.376Z,96420.03
2023-03-02T17:34:59.264Z,96423.78
2023-03-02T17:37:30.516Z,96434.91
2023-03-02T17:39:58.527Z,96422.97
2023-03-02T17:42:27.177Z,96354.50
2023-03-02T17:44:55.094Z,96432.84
2023-03-02T17:47:33.134Z,96443.22
2023-03-02T17:50:03.959Z,96441.59
2023-03-02T17:52:31.807Z,96445.72
2023-03-02T17:54:59.753Z,96457.50
2023-03-02T17:57:29.685Z,96443.50
2023-03-02T18:00:00.323Z,96457.47
2023-03-02T18:02:30.680Z,96455.78
2023-03-02T18:05:00.913Z,96462.56
2023-03-02T18:07:30.086Z,96463.16
2023-03-02T18:09:58.102Z,96468.56
2023-03-02T18:12:26.024Z,96467.31
2023-03-02T18:14:59.058Z,96423.97
2023-03-02T18:17:34.257Z,96188.13
2023-03-02T18:20:03.587Z,96454.44
2023-03-02T18:22:36.332Z,96477.09
2023-03-02T18:25:11.495Z,96479.22
2023-03-02T18:27:46.422Z,96474.72
2023-03-02T18:30:16.930Z,96478.34
2023-03-02T18:32:45.969Z,96479.97
2023-03-02T18:35:14.080Z,96484.84
2023-03-02T18:37:45.180Z,96492.13
2023-03-02T18:40:16.068Z,96475.31
2023-03-02T18:42:43.939Z,96490.78
2023-03-02T18:45:22.562Z,96466.31
2023-03-02T18:47:50.644Z,96504.06
2023-03-02T18:50:19.024Z,96490.50
2023-03-02T18:52:51.461Z,96506.44
2023-03-02T18:55:21.913Z,96438.38
2023-03-02T18:57:54.108Z,96509.66
2023-03-02T19:00:29.144Z,96518.97
2023-03-02T19:02:57.011Z,96390.84
2023-03-02T19:05:31.819Z,96512.09
2023-03-02T19:08:05.428Z,96523.13
2023-03-02T19:10:35.720Z,96508.78
2023-03-02T19:13:03.653Z,96525.69
2023-03-02T19:15:37.423Z,96471.25
2023-03-02T19:18:05.603Z,96527.66
2023-03-02T19:20:36.600Z,96532.81
2023-03-02T19:23:05.752Z,96529.09
2023-03-02T19:25:33.927Z,96529.91
2023-03-02T19:28:01.864Z,96530.13
2023-03-02T19:30:30.120Z,96528.47
2023-03-02T19:32:58.037Z,96523.19
2023-03-02T19:35:32.064Z,96531.47
2023-03-02T19:38:02.999Z,96506.72
2023-03-02T19:40:34.826Z,96525.34
2023-03-02T19:43:03.233Z,96536.78
2023-03-02T19:45:34.894Z,96516.19
2023-03-02T19:48:04.041Z,96543.63
2023-03-02T19:50:32.131Z,96531.41
2023-03-02T19:53:00.392Z,96536.00
2023-03-02T19:55:28.486Z,96538.72
2023-03-02T19:58:00.135Z,96546.50
2023-03-02T20:00:29.618Z,96535.84
2023-03-02T20:03:01.223Z,96548.31
2023-03-02T20:05:29.487Z,96545.50
2023-03-02T20:07:57.786Z,96549.81
2023-03-02T20:10:34.137Z,96552.22
2023-03-02T20:13:04.022Z,96516.59
2023-03-02T20:15:36.373Z,96551.97
2023-03-02T20:18:05.567Z,96558.31
2023-03-02T20:20:33.519Z,96543.88
2023-03-02T20:23:02.473Z,96540.66
2023-03-02T20:25:30.294Z,96552.09
2023-03-02T20:27:59.147Z,96507.50
2023-03-02T20:30:30.893Z,96555.50
2023-03-02T20:32:59.738Z,96556.00
2023-03-02T20:35:32.253Z,96545.97
2023-03-02T20:38:02.915Z,96551.19
2023-03-02T20:40:34.796Z,96550.88
2023-03-02T20:43:02.706Z,96555.75
2023-03-02T20:45:32.786Z,96532.09
2023-03-02T20:48:00.756Z,96557.53
2023-03-02T20:50:33.183Z,96555.84
2023-03-02T20:53:04.117Z,96559.59
2023-03-02T20:55:33.425Z,96554.06
2023-03-02T20:58:01.554Z,96549.63
2023-03-02T21:00:34.790Z,96553.56
2023-03-02T21:03:05.681Z,96564.38
2023-03-02T21:05:34.730Z,96561.94
2023-03-02T21:08:06.571Z,96566.97
2023-03-02T21:10:37.939Z,96560.25
2023-03-02T21:13:07.640Z,96571.63
2023-03-02T21:15:37.419Z,96533.06
2023-03-02T21:18:08.518Z,96576.16
2023-03-02T21:20:39.935Z,96574.28
2023-03-02T21:23:08.144Z,96574.72
2023-03-02T21:25:44.843Z,96575.63
2023-03-02T21:28:13.242Z,96578.13
2023-03-02T21:30:43.746Z,96575.59
2023-03-02T21:33:16.476Z,96583.25
2023-03-02T21:35:46.888Z,96584.31
2023-03-02T21:38:14.814Z,96578.16
2023-03-02T21:40:45.983Z,96563.84
2023-03-02T21:43:16.937Z,96567.44
2023-03-02T21:45:46.121Z,96577.69
2023-03-02T21:48:14.258Z,96568.69
2023-03-02T21:50:42.194Z,96576.28
2023-03-02T21:53:13.117Z,96573.75
2023-03-02T21:55:42.330Z,96575.28
2023-03-02T21:58:13.154Z,96559.78
2023-03-02T22:00:41.846Z,96553.72
2023-03-02T22:03:14.306Z,96558.97
2023-03-02T22:05:42.508Z,96567.97
2023-03-02T22:08:11.208Z,96558.84
2023-03-02T22:10:41.537Z,96566.50
2023-03-02T22:13:19.146Z,96517.28
2023-03-02T22:15:47.385Z,96483.19
2023-03-02T22:18:27.117Z,96556.91
2023-03-02T22:20:55.000Z,96561.03
2023-03-02T22:23:27.778Z,96558.59
2023-03-02T22:25:57.278Z,96561.50
2023-03-02T22:28:26.556Z,96558.41
2023-03-02T22:30:58.854Z,96562.41
2023-03-02T22:33:32.169Z,96555.44
2023-03-02T22:36:06.544Z,96554.03
2023-03-02T22:38:34.392Z,96537.31
2023-03-02T22:41:07.056Z,96524.53
2023-03-02T22:43:36.289Z,96547.53
2023-03-02T22:46:15.314Z,96565.16
2023-03-02T22:48:48.497Z,96564.56
2023-03-02T22:51:19.520Z,96552.22
2023-03-02T22:53:51.121Z,96546.53
2023-03-02T22:56:34.746Z,96573.81
2023-03-02T22:59:06.835Z,96565.78
2023-03-02T23:01:44.158Z,96564.09
2023-03-02T23:04:22.555Z,96561.41
2023-03-02T23:06:55.017Z,96558.97
2023-03-02T23:09:28.399Z,96546.97
2023-03-02T23:12:00.590Z,96542.50
2023-03-02T23:14:30.043Z,96566.97
2023-03-02T23:17:01.889Z,96569.78
2023-03-02T23:19:33.004Z,96557.66
2023-03-02T23:22:02.759Z,96563.66
2023-03-02T23:24:31.832Z,96565.88
2023-03-02T23:27:00.026Z,96554.63
2023-03-02T23:29:30.708Z,96562.75
2023-03-02T23:31:59.081Z,96535.53
2023-03-02T23:34:31.040Z,96560.00
2023-03-02T23:37:00.328Z,96471.16
2023-03-02T23:39:28.348Z,96475.72
2023-03-02T23:41:58.294Z,96563.84
2023-03-02T23:44:30.431Z,96566.91
2023-03-02T23:46:58.513Z,96569.53
2023-03-02T23:49:26.602Z,96515.63
2023-03-02T23:51:55.116Z,96561.81
2023-03-02T23:54:27.146Z,96576.28
2023-03-02T23:56:54.984Z,96578.41
2023-03-02T23:59:23.164Z,96531.44
